sensor_id;sensor_type;location;lat;lon;timestamp;pressure;altitude;pressure_sealevel;temperature;humidity
67842;BME280;54642;59.126;37.876;2023-07-09T00:02:26;99683.34;;;17.85;66.28
67842;BME280;54642;59.126;37.876;2023-07-09T00:04:52;99698.81;;;17.93;66.25
67842;BME280;54642;59.126;37.876;2023-07-09T00:07:29;99666.25;;;17.76;65.65
67842;BME280;54642;59.126;37.876;2023-07-09T00:09:56;99690.38;;;17.84;65.91
67842;BME280;54642;59.126;37.876;2023-07-09T00:12:23;99659.13;;;17.58;65.95
67842;BME280;54642;59.126;37.876;2023-07-09T00:14:49;99647.31;;;17.47;66.12
67842;BME280;54642;59.126;37.876;2023-07-09T00:17:26;99696.03;;;17.73;66.49
67842;BME280;54642;59.126;37.876;2023-07-09T00:19:53;99657.06;;;17.44;66.58
67842;BME280;54642;59.126;37.876;2023-07-09T00:22:20;99671.53;;;17.52;66.92
67842;BME280;54642;59.126;37.876;2023-07-09T00:24:49;99691.50;;;17.57;66.97
67842;BME280;54642;59.126;37.876;2023-07-09T00:27:20;99695.41;;;17.67;66.97
67842;BME280;54642;59.126;37.876;2023-07-09T00:29:47;99696.31;;;17.67;66.52
67842;BME280;54642;59.126;37.876;2023-07-09T00:32:19;99651.09;;;17.40;67.00
67842;BME280;54642;59.126;37.876;2023-07-09T00:34:48;99689.59;;;17.60;66.60
67842;BME280;54642;59.126;37.876;2023-07-09T00:37:16;99705.19;;;17.63;66.67
67842;BME280;54642;59.126;37.876;2023-07-09T00:39:48;99719.16;;;17.64;66.69
67842;BME280;54642;59.126;37.876;2023-07-09T00:42:19;99707.94;;;17.60;67.11
67842;BME280;54642;59.126;37.876;2023-07-09T00:44:55;99708.91;;;17.58;66.77
67842;BME280;54642;59.126;37.876;2023-07-09T00:52:53;99660.59;;;17.21;66.64
67842;BME280;54642;59.126;37.876;2023-07-09T00:55:24;99709.50;;;17.42;66.65
67842;BME280;54642;59.126;37.876;2023-07-09T00:57:59;99705.69;;;17.51;67.42
67842;BME280;54642;59.126;37.876;2023-07-09T01:00:54;99716.53;;;17.64;66.45
67842;BME280;54642;59.126;37.876;2023-07-09T01:03:30;99677.16;;;17.43;66.53
67842;BME280;54642;59.126;37.876;2023-07-09T01:05:59;99724.34;;;17.65;66.34
67842;BME280;54642;59.126;37.876;2023-07-09T01:08:32;99718.47;;;17.59;67.51
67842;BME280;54642;59.126;37.876;2023-07-09T01:10:58;99715.44;;;17.69;68.36
67842;BME280;54642;59.126;37.876;2023-07-09T01:13:26;99722.41;;;17.93;67.96
67842;BME280;54642;59.126;37.876;2023-07-09T01:15:53;99692.31;;;17.79;68.55
67842;BME280;54642;59.126;37.876;2023-07-09T01:18:19;99730.56;;;18.07;67.07
67842;BME280;54642;59.126;37.876;2023-07-09T01:20:47;99664.13;;;17.64;65.92
67842;BME280;54642;59.126;37.876;2023-07-09T01:23:13;99722.88;;;17.80;66.23
67842;BME280;54642;59.126;37.876;2023-07-09T01:25:46;99722.38;;;17.70;66.14
67842;BME280;54642;59.126;37.876;2023-07-09T01:28:19;99707.47;;;17.49;66.38
67842;BME280;54642;59.126;37.876;2023-07-09T01:30:46;99659.91;;;17.15;66.25
67842;BME280;54642;59.126;37.876;2023-07-09T01:33:19;99713.03;;;17.41;66.56
67842;BME280;54642;59.126;37.876;2023-07-09T01:35:44;99714.03;;;17.39;66.52
67842;BME280;54642;59.126;37.876;2023-07-09T01:38:10;99676.06;;;17.03;66.50
67842;BME280;54642;59.126;37.876;2023-07-09T01:40:36;99706.25;;;17.13;66.89
67842;BME280;54642;59.126;37.876;2023-07-09T01:43:04;99736.53;;;17.21;66.97
67842;BME280;54642;59.126;37.876;2023-07-09T01:45:35;99707.44;;;17.05;66.89
67842;BME280;54642;59.126;37.876;2023-07-09T01:48:02;99715.91;;;17.11;67.05
67842;BME280;54642;59.126;37.876;2023-07-09T01:50:29;99727.34;;;17.09;67.42
67842;BME280;54642;59.126;37.876;2023-07-09T01:52:56;99716.38;;;16.99;67.38
67842;BME280;54642;59.126;37.876;2023-07-09T01:55:23;99677.25;;;16.71;67.17
67842;BME280;54642;59.126;37.876;2023-07-09T01:57:50;99727.97;;;16.92;67.72
67842;BME280;54642;59.126;37.876;2023-07-09T02:00:18;99717.44;;;16.93;67.63
67842;BME280;54642;59.126;37.876;2023-07-09T02:02:47;99712.47;;;16.86;67.47
67842;BME280;54642;59.126;37.876;2023-07-09T02:05:16;99712.56;;;16.83;67.79
67842;BME280;54642;59.126;37.876;2023-07-09T02:07:44;99725.63;;;16.84;67.56
67842;BME280;54642;59.126;37.876;2023-07-09T02:10:12;99702.53;;;16.70;68.00
67842;BME280;54642;59.126;37.876;2023-07-09T02:12:38;99675.22;;;16.54;67.94
67842;BME280;54642;59.126;37.876;2023-07-09T02:15:04;99708.34;;;16.78;67.96
67842;BME280;54642;59.126;37.876;2023-07-09T02:17:31;99711.88;;;16.77;68.24
67842;BME280;54642;59.126;37.876;2023-07-09T02:19:57;99701.59;;;16.73;68.45
67842;BME280;54642;59.126;37.876;2023-07-09T02:22:24;99719.56;;;16.82;68.16
67842;BME280;54642;59.126;37.876;2023-07-09T02:24:52;99705.84;;;16.75;68.17
67842;BME280;54642;59.126;37.876;2023-07-09T02:27:19;99716.09;;;16.83;68.28
67842;BME280;54642;59.126;37.876;2023-07-09T02:29:45;99718.03;;;16.76;68.36
67842;BME280;54642;59.126;37.876;2023-07-09T02:32:17;99710.19;;;16.76;68.57
67842;BME280;54642;59.126;37.876;2023-07-09T02:34:46;99690.13;;;16.75;68.45
67842;BME280;54642;59.126;37.876;2023-07-09T02:37:16;99708.19;;;16.85;68.87
67842;BME280;54642;59.126;37.876;2023-07-09T02:39:44;99675.53;;;16.70;68.35
67842;BME280;54642;59.126;37.876;2023-07-09T02:42:11;99709.56;;;16.93;68.45
67842;BME280;54642;59.126;37.876;2023-07-09T02:44:40;99678.81;;;16.75;68.47
67842;BME280;54642;59.126;37.876;2023-07-09T02:47:06;99699.09;;;16.93;68.51
67842;BME280;54642;59.126;37.876;2023-07-09T02:49:32;99713.56;;;17.04;68.30
67842;BME280;54642;59.126;37.876;2023-07-09T02:51:58;99710.00;;;17.06;68.58
67842;BME280;54642;59.126;37.876;2023-07-09T02:54:24;99647.53;;;16.72;68.50
67842;BME280;54642;59.126;37.876;2023-07-09T02:56:50;99695.25;;;17.04;68.47
67842;BME280;54642;59.126;37.876;2023-07-09T02:59:17;99710.78;;;17.08;68.52
67842;BME280;54642;59.126;37.876;2023-07-09T03:01:43;99701.13;;;17.10;68.79
67842;BME280;54642;59.126;37.876;2023-07-09T03:04:09;99702.94;;;17.08;68.60
67842;BME280;54642;59.126;37.876;2023-07-09T03:06:36;99702.19;;;17.05;68.53
67842;BME280;54642;59.126;37.876;2023-07-09T03:09:04;99706.34;;;17.10;68.40
67842;BME280;54642;59.126;37.876;2023-07-09T03:11:31;99666.84;;;16.93;68.32
67842;BME280;54642;59.126;37.876;2023-07-09T03:13:58;99714.00;;;17.15;68.39
67842;BME280;54642;59.126;37.876;2023-07-09T03:16:26;99644.50;;;16.84;68.26
67842;BME280;54642;59.126;37.876;2023-07-09T03:18:53;99676.06;;;17.03;68.48
67842;BME280;54642;59.126;37.876;2023-07-09T03:21:20;99648.53;;;16.93;68.52
67842;BME280;54642;59.126;37.876;2023-07-09T03:23:46;99700.66;;;17.23;68.34
67842;BME280;54642;59.126;37.876;2023-07-09T03:26:12;99687.03;;;17.13;68.53
67842;BME280;54642;59.126;37.876;2023-07-09T03:28:38;99699.19;;;17.15;68.78
67842;BME280;54642;59.126;37.876;2023-07-09T03:31:04;99708.66;;;17.18;68.72
67842;BME280;54642;59.126;37.876;2023-07-09T03:33:30;99672.66;;;17.01;68.84
67842;BME280;54642;59.126;37.876;2023-07-09T03:35:56;99711.91;;;17.25;68.82
67842;BME280;54642;59.126;37.876;2023-07-09T03:38:22;99659.59;;;17.01;68.84
67842;BME280;54642;59.126;37.876;2023-07-09T03:40:54;99696.94;;;17.28;68.77
67842;BME280;54642;59.126;37.876;2023-07-09T03:43:23;99708.88;;;17.36;69.06
67842;BME280;54642;59.126;37.876;2023-07-09T03:45:51;99691.59;;;17.31;68.80
67842;BME280;54642;59.126;37.876;2023-07-09T03:48:18;99710.19;;;17.47;68.47
67842;BME280;54642;59.126;37.876;2023-07-09T03:50:45;99654.41;;;17.22;68.43
67842;BME280;54642;59.126;37.876;2023-07-09T03:53:12;99720.38;;;17.55;68.63
67842;BME280;54642;59.126;37.876;2023-07-09T03:55:39;99710.63;;;17.59;68.67
67842;BME280;54642;59.126;37.876;2023-07-09T03:58:05;99681.50;;;17.44;68.61
67842;BME280;54642;59.126;37.876;2023-07-09T04:00:32;99711.16;;;17.67;68.62
67842;BME280;54642;59.126;37.876;2023-07-09T04:03:00;99705.78;;;17.70;68.54
67842;BME280;54642;59.126;37.876;2023-07-09T04:05:27;99714.06;;;17.81;68.33
67842;BME280;54642;59.126;37.876;2023-07-09T04:07:53;99723.50;;;17.87;68.67
67842;BME280;54642;59.126;37.876;2023-07-09T04:10:20;99708.50;;;17.90;68.50
67842;BME280;54642;59.126;37.876;2023-07-09T04:12:46;99716.13;;;17.97;68.15
67842;BME280;54642;59.126;37.876;2023-07-09T04:15:12;99708.06;;;18.01;67.89
67842;BME280;54642;59.126;37.876;2023-07-09T04:17:39;99711.16;;;18.11;67.94
67842;BME280;54642;59.126;37.876;2023-07-09T04:20:07;99707.41;;;18.17;68.74
67842;BME280;54642;59.126;37.876;2023-07-09T04:22:33;99656.16;;;18.09;67.58
67842;BME280;54642;59.126;37.876;2023-07-09T04:25:01;99697.59;;;18.42;67.35
67842;BME280;54642;59.126;37.876;2023-07-09T04:27:28;99685.22;;;18.46;66.94
67842;BME280;54642;59.126;37.876;2023-07-09T04:29:54;99691.41;;;18.43;66.83
67842;BME280;54642;59.126;37.876;2023-07-09T04:32:21;99683.88;;;18.36;66.97
67842;BME280;54642;59.126;37.876;2023-07-09T04:34:47;99694.09;;;18.42;67.01
67842;BME280;54642;59.126;37.876;2023-07-09T04:37:13;99665.16;;;18.24;66.69
67842;BME280;54642;59.126;37.876;2023-07-09T04:39:43;99660.28;;;18.15;66.53
67842;BME280;54642;59.126;37.876;2023-07-09T04:42:12;99661.59;;;18.25;67.02
67842;BME280;54642;59.126;37.876;2023-07-09T04:44:39;99680.63;;;18.51;66.59
67842;BME280;54642;59.126;37.876;2023-07-09T04:47:05;99632.69;;;18.27;66.63
67842;BME280;54642;59.126;37.876;2023-07-09T04:49:33;99627.16;;;18.33;66.57
67842;BME280;54642;59.126;37.876;2023-07-09T04:52:00;99597.34;;;18.15;66.32
67842;BME280;54642;59.126;37.876;2023-07-09T04:54:27;99675.59;;;18.65;66.76
67842;BME280;54642;59.126;37.876;2023-07-09T04:56:53;99666.78;;;18.66;66.08
67842;BME280;54642;59.126;37.876;2023-07-09T04:59:19;99687.66;;;18.70;66.28
67842;BME280;54642;59.126;37.876;2023-07-09T05:01:46;99634.94;;;18.35;66.20
67842;BME280;54642;59.126;37.876;2023-07-09T05:04:12;99692.97;;;18.68;66.01
67842;BME280;54642;59.126;37.876;2023-07-09T05:06:38;99677.22;;;18.68;66.12
67842;BME280;54642;59.126;37.876;2023-07-09T05:09:05;99672.66;;;18.53;66.52
67842;BME280;54642;59.126;37.876;2023-07-09T05:11:35;99636.31;;;18.43;66.51
67842;BME280;54642;59.126;37.876;2023-07-09T05:14:03;99661.19;;;18.55;66.64
67842;BME280;54642;59.126;37.876;2023-07-09T05:16:29;99672.28;;;18.62;66.49
67842;BME280;54642;59.126;37.876;2023-07-09T05:18:57;99656.72;;;18.57;66.77
67842;BME280;54642;59.126;37.876;2023-07-09T05:21:23;99627.19;;;18.52;66.47
67842;BME280;54642;59.126;37.876;2023-07-09T05:23:50;99684.25;;;18.88;66.85
67842;BME280;54642;59.126;37.876;2023-07-09T05:26:16;99642.97;;;18.71;66.43
67842;BME280;54642;59.126;37.876;2023-07-09T05:28:42;99672.28;;;19.01;65.92
67842;BME280;54642;59.126;37.876;2023-07-09T05:31:08;99671.84;;;19.11;66.15
67842;BME280;54642;59.126;37.876;2023-07-09T05:33:34;99677.75;;;19.16;65.81
67842;BME280;54642;59.126;37.876;2023-07-09T05:36:00;99686.19;;;19.03;65.83
67842;BME280;54642;59.126;37.876;2023-07-09T05:38:27;99684.16;;;18.90;65.92
67842;BME280;54642;59.126;37.876;2023-07-09T05:41:03;99686.22;;;18.83;66.14
67842;BME280;54642;59.126;37.876;2023-07-09T05:43:30;99612.59;;;18.46;66.38
67842;BME280;54642;59.126;37.876;2023-07-09T05:45:56;99686.72;;;18.91;66.03
67842;BME280;54642;59.126;37.876;2023-07-09T05:48:22;99691.97;;;18.91;65.91
67842;BME280;54642;59.126;37.876;2023-07-09T05:50:52;99685.31;;;18.84;65.37
67842;BME280;54642;59.126;37.876;2023-07-09T05:53:22;99680.13;;;18.82;65.26
67842;BME280;54642;59.126;37.876;2023-07-09T05:55:48;99692.13;;;18.88;65.46
67842;BME280;54642;59.126;37.876;2023-07-09T05:58:14;99683.59;;;18.83;65.56
67842;BME280;54642;59.126;37.876;2023-07-09T06:00:40;99636.63;;;18.56;65.20
67842;BME280;54642;59.126;37.876;2023-07-09T06:03:06;99689.50;;;18.88;64.85
67842;BME280;54642;59.126;37.876;2023-07-09T06:05:34;99666.38;;;18.76;64.81
67842;BME280;54642;59.126;37.876;2023-07-09T06:08:00;99677.44;;;18.84;64.52
67842;BME280;54642;59.126;37.876;2023-07-09T06:10:26;99674.88;;;18.82;64.97
67842;BME280;54642;59.126;37.876;2023-07-09T06:12:52;99688.28;;;18.95;64.60
67842;BME280;54642;59.126;37.876;2023-07-09T06:15:18;99683.41;;;18.88;64.59
67842;BME280;54642;59.126;37.876;2023-07-09T06:17:44;99671.94;;;18.89;64.57
67842;BME280;54642;59.126;37.876;2023-07-09T06:20:10;99652.03;;;18.84;64.22
67842;BME280;54642;59.126;37.876;2023-07-09T06:22:36;99654.16;;;19.14;63.53
67842;BME280;54642;59.126;37.876;2023-07-09T06:25:05;99668.84;;;19.37;62.98
67842;BME280;54642;59.126;37.876;2023-07-09T06:27:33;99621.50;;;19.20;62.54
67842;BME280;54642;59.126;37.876;2023-07-09T06:29:59;99681.72;;;19.61;61.96
67842;BME280;54642;59.126;37.876;2023-07-09T06:32:25;99619.84;;;19.36;61.79
67842;BME280;54642;59.126;37.876;2023-07-09T06:34:51;99673.31;;;19.72;62.29
67842;BME280;54642;59.126;37.876;2023-07-09T06:37:20;99675.31;;;19.67;62.42
67842;BME280;54642;59.126;37.876;2023-07-09T06:39:46;99681.41;;;19.67;62.03
67842;BME280;54642;59.126;37.876;2023-07-09T06:42:12;99673.06;;;19.59;62.25
67842;BME280;54642;59.126;37.876;2023-07-09T06:44:55;99679.41;;;19.55;62.13
67842;BME280;54642;59.126;37.876;2023-07-09T06:47:24;99682.09;;;19.53;62.33
67842;BME280;54642;59.126;37.876;2023-07-09T06:49:50;99657.75;;;19.50;61.80
67842;BME280;54642;59.126;37.876;2023-07-09T06:52:16;99667.88;;;19.94;61.44
67842;BME280;54642;59.126;37.876;2023-07-09T06:54:42;99652.38;;;20.23;60.58
67842;BME280;54642;59.126;37.876;2023-07-09T06:57:07;99623.88;;;20.48;59.65
67842;BME280;54642;59.126;37.876;2023-07-09T06:59:33;99672.34;;;20.95;59.44
67842;BME280;54642;59.126;37.876;2023-07-09T07:01:59;99667.38;;;20.89;59.29
67842;BME280;54642;59.126;37.876;2023-07-09T07:04:26;99639.41;;;20.53;59.75
67842;BME280;54642;59.126;37.876;2023-07-09T07:06:52;99670.63;;;20.61;60.39
67842;BME280;54642;59.126;37.876;2023-07-09T07:09:21;99677.44;;;20.47;60.33
67842;BME280;54642;59.126;37.876;2023-07-09T07:11:47;99673.84;;;20.32;59.10
67842;BME280;54642;59.126;37.876;2023-07-09T07:14:12;99639.91;;;20.10;58.94
67842;BME280;54642;59.126;37.876;2023-07-09T07:16:38;99687.00;;;20.32;59.14
67842;BME280;54642;59.126;37.876;2023-07-09T07:19:04;99685.34;;;20.30;59.58
67842;BME280;54642;59.126;37.876;2023-07-09T07:21:31;99682.66;;;20.31;59.72
67842;BME280;54642;59.126;37.876;2023-07-09T07:23:57;99682.13;;;20.25;60.48
67842;BME280;54642;59.126;37.876;2023-07-09T07:26:23;99698.22;;;20.18;60.48
67842;BME280;54642;59.126;37.876;2023-07-09T07:28:49;99697.06;;;20.07;60.56
67842;BME280;54642;59.126;37.876;2023-07-09T07:31:16;99696.59;;;19.98;60.25
67842;BME280;54642;59.126;37.876;2023-07-09T07:33:42;99691.72;;;19.91;60.86
67842;BME280;54642;59.126;37.876;2023-07-09T07:36:09;99692.84;;;19.85;61.74
67842;BME280;54642;59.126;37.876;2023-07-09T07:38:35;99685.41;;;19.76;61.61
67842;BME280;54642;59.126;37.876;2023-07-09T07:41:01;99678.78;;;19.67;61.83
67842;BME280;54642;59.126;37.876;2023-07-09T07:43:28;99688.84;;;19.59;62.41
67842;BME280;54642;59.126;37.876;2023-07-09T07:45:54;99690.53;;;19.60;62.49
67842;BME280;54642;59.126;37.876;2023-07-09T07:48:20;99646.09;;;19.36;62.43
67842;BME280;54642;59.126;37.876;2023-07-09T07:50:46;99617.00;;;19.22;62.03
67842;BME280;54642;59.126;37.876;2023-07-09T07:53:14;99689.47;;;19.64;62.09
67842;BME280;54642;59.126;37.876;2023-07-09T07:55:41;99613.63;;;19.20;62.02
67842;BME280;54642;59.126;37.876;2023-07-09T07:58:12;99699.91;;;19.66;61.82
67842;BME280;54642;59.126;37.876;2023-07-09T08:00:39;99693.66;;;19.68;62.08
67842;BME280;54642;59.126;37.876;2023-07-09T08:03:05;99688.38;;;19.68;61.69
67842;BME280;54642;59.126;37.876;2023-07-09T08:05:31;99682.56;;;19.80;61.60
67842;BME280;54642;59.126;37.876;2023-07-09T08:07:57;99679.00;;;19.81;61.59
67842;BME280;54642;59.126;37.876;2023-07-09T08:10:23;99688.13;;;19.92;61.53
67842;BME280;54642;59.126;37.876;2023-07-09T08:12:49;99685.38;;;19.95;61.40
67842;BME280;54642;59.126;37.876;2023-07-09T08:15:15;99644.03;;;19.79;62.07
67842;BME280;54642;59.126;37.876;2023-07-09T08:17:41;99651.72;;;19.84;61.18
67842;BME280;54642;59.126;37.876;2023-07-09T08:20:07;99678.88;;;20.02;61.54
67842;BME280;54642;59.126;37.876;2023-07-09T08:22:33;99689.31;;;20.04;61.59
67842;BME280;54642;59.126;37.876;2023-07-09T08:24:59;99676.31;;;20.00;61.80
67842;BME280;54642;59.126;37.876;2023-07-09T08:27:25;99654.09;;;19.89;62.30
67842;BME280;54642;59.126;37.876;2023-07-09T08:29:51;99700.53;;;20.25;61.83
67842;BME280;54642;59.126;37.876;2023-07-09T08:32:17;99686.69;;;20.21;60.35
67842;BME280;54642;59.126;37.876;2023-07-09T08:34:43;99652.72;;;19.99;60.55
67842;BME280;54642;59.126;37.876;2023-07-09T08:37:09;99635.00;;;20.03;60.16
67842;BME280;54642;59.126;37.876;2023-07-09T08:39:36;99685.50;;;20.44;59.69
67842;BME280;54642;59.126;37.876;2023-07-09T08:42:11;99698.66;;;20.44;59.69
67842;BME280;54642;59.126;37.876;2023-07-09T08:47:29;99697.81;;;20.26;60.43
67842;BME280;54642;59.126;37.876;2023-07-09T08:50:01;99701.00;;;20.15;60.64
67842;BME280;54642;59.126;37.876;2023-07-09T08:52:32;99693.13;;;19.98;60.66
67842;BME280;54642;59.126;37.876;2023-07-09T08:55:23;99700.38;;;19.93;61.25
67842;BME280;54642;59.126;37.876;2023-07-09T08:57:55;99694.94;;;19.78;61.05
67842;BME280;54642;59.126;37.876;2023-07-09T09:00:44;99697.63;;;19.77;61.04
67842;BME280;54642;59.126;37.876;2023-07-09T09:03:29;99703.88;;;19.74;61.05
67842;BME280;54642;59.126;37.876;2023-07-09T09:05:56;99697.31;;;19.83;61.17
67842;BME280;54642;59.126;37.876;2023-07-09T09:08:31;99698.19;;;19.84;60.13
67842;BME280;54642;59.126;37.876;2023-07-09T09:12:01;99694.63;;;19.85;60.16
67842;BME280;54642;59.126;37.876;2023-07-09T09:14:03;99695.25;;;19.90;60.98
67842;BME280;54642;59.126;37.876;2023-07-09T09:16:33;99692.41;;;20.29;59.79
67842;BME280;54642;59.126;37.876;2023-07-09T09:19:01;99683.94;;;20.57;58.25
67842;BME280;54642;59.126;37.876;2023-07-09T09:21:34;99703.69;;;20.66;58.44
67842;BME280;54642;59.126;37.876;2023-07-09T09:24:16;99664.44;;;20.44;58.20
67842;BME280;54642;59.126;37.876;2023-07-09T09:26:43;99679.47;;;20.42;58.26
67842;BME280;54642;59.126;37.876;2023-07-09T09:29:12;99701.47;;;20.41;58.48
67842;BME280;54642;59.126;37.876;2023-07-09T09:31:38;99646.22;;;20.06;58.74
67842;BME280;54642;59.126;37.876;2023-07-09T09:34:26;99695.88;;;20.30;58.36
67842;BME280;54642;59.126;37.876;2023-07-09T09:36:54;99703.19;;;20.25;58.42
67842;BME280;54642;59.126;37.876;2023-07-09T09:39:20;99710.38;;;20.21;58.07
67842;BME280;54642;59.126;37.876;2023-07-09T09:41:47;99699.59;;;20.26;58.58
67842;BME280;54642;59.126;37.876;2023-07-09T09:44:24;99701.25;;;20.28;58.55
67842;BME280;54642;59.126;37.876;2023-07-09T09:46:51;99693.34;;;20.28;58.87
67842;BME280;54642;59.126;37.876;2023-07-09T09:49:17;99690.69;;;20.46;58.91
67842;BME280;54642;59.126;37.876;2023-07-09T09:51:45;99676.81;;;20.60;57.93
67842;BME280;54642;59.126;37.876;2023-07-09T09:54:21;99701.28;;;20.62;57.77
67842;BME280;54642;59.126;37.876;2023-07-09T09:56:49;99695.50;;;20.55;57.94
67842;BME280;54642;59.126;37.876;2023-07-09T09:59:31;99678.38;;;20.64;58.28
67842;BME280;54642;59.126;37.876;2023-07-09T10:02:16;99679.69;;;20.55;58.03
67842;BME280;54642;59.126;37.876;2023-07-09T10:04:43;99664.75;;;20.55;57.64
67842;BME280;54642;59.126;37.876;2023-07-09T10:07:19;99667.72;;;20.83;57.38
67842;BME280;54642;59.126;37.876;2023-07-09T10:09:52;99625.25;;;20.73;56.82
67842;BME280;54642;59.126;37.876;2023-07-09T10:17:38;99664.69;;;21.06;55.82
67842;BME280;54642;59.126;37.876;2023-07-09T10:20:34;99700.41;;;21.44;56.28
67842;BME280;54642;59.126;37.876;2023-07-09T10:23:34;99695.00;;;21.47;55.66
67842;BME280;54642;59.126;37.876;2023-07-09T10:26:14;99696.47;;;21.19;55.90
67842;BME280;54642;59.126;37.876;2023-07-09T10:28:56;99694.09;;;20.99;56.03
67842;BME280;54642;59.126;37.876;2023-07-09T10:39:41;99681.91;;;20.80;56.07
67842;BME280;54642;59.126;37.876;2023-07-09T10:42:22;99648.66;;;20.62;56.05
67842;BME280;54642;59.126;37.876;2023-07-09T10:44:59;99690.69;;;20.97;56.32
67842;BME280;54642;59.126;37.876;2023-07-09T10:47:39;99688.13;;;20.95;55.78
67842;BME280;54642;59.126;37.876;2023-07-09T10:50:13;99677.75;;;20.92;56.40
67842;BME280;54642;59.126;37.876;2023-07-09T10:52:44;99660.16;;;20.77;55.80
67842;BME280;54642;59.126;37.876;2023-07-09T10:55:43;99647.22;;;20.72;56.11
67842;BME280;54642;59.126;37.876;2023-07-09T10:58:22;99685.22;;;21.00;55.71
67842;BME280;54642;59.126;37.876;2023-07-09T11:00:50;99685.25;;;21.16;54.61
67842;BME280;54642;59.126;37.876;2023-07-09T11:03:24;99644.88;;;21.15;54.24
67842;BME280;54642;59.126;37.876;2023-07-09T11:05:53;99675.91;;;21.42;53.73
67842;BME280;54642;59.126;37.876;2023-07-09T11:08:28;99634.94;;;21.36;53.92
67842;BME280;54642;59.126;37.876;2023-07-09T11:11:00;99687.16;;;21.61;54.02
67842;BME280;54642;59.126;37.876;2023-07-09T11:13:40;99685.13;;;21.50;54.29
67842;BME280;54642;59.126;37.876;2023-07-09T11:16:12;99639.53;;;21.01;54.38
67842;BME280;54642;59.126;37.876;2023-07-09T11:18:40;99639.22;;;21.07;54.69
67842;BME280;54642;59.126;37.876;2023-07-09T11:21:06;99685.63;;;21.41;54.90
67842;BME280;54642;59.126;37.876;2023-07-09T11:23:45;99635.78;;;21.05;54.27
67842;BME280;54642;59.126;37.876;2023-07-09T11:26:35;99672.44;;;21.25;54.20
67842;BME280;54642;59.126;37.876;2023-07-09T11:31:42;99670.81;;;20.91;53.83
67842;BME280;54642;59.126;37.876;2023-07-09T11:36:59;99695.44;;;20.90;54.52
67842;BME280;54642;59.126;37.876;2023-07-09T11:42:02;99671.97;;;20.69;54.43
67842;BME280;54642;59.126;37.876;2023-07-09T11:44:31;99682.31;;;20.72;53.92
67842;BME280;54642;59.126;37.876;2023-07-09T11:47:21;99682.22;;;20.74;54.25
67842;BME280;54642;59.126;37.876;2023-07-09T11:55:22;99645.38;;;20.56;54.86
67842;BME280;54642;59.126;37.876;2023-07-09T11:57:59;99673.00;;;20.99;53.94
67842;BME280;54642;59.126;37.876;2023-07-09T12:00:28;99679.13;;;20.99;53.46
67842;BME280;54642;59.126;37.876;2023-07-09T12:02:56;99674.34;;;20.90;53.97
67842;BME280;54642;59.126;37.876;2023-07-09T12:05:27;99674.53;;;21.03;54.01
67842;BME280;54642;59.126;37.876;2023-07-09T12:07:55;99659.25;;;21.25;54.25
67842;BME280;54642;59.126;37.876;2023-07-09T12:10:25;99643.53;;;21.40;53.35
67842;BME280;54642;59.126;37.876;2023-07-09T12:12:57;99674.66;;;21.65;53.16
67842;BME280;54642;59.126;37.876;2023-07-09T12:15:28;99673.53;;;21.53;53.78
67842;BME280;54642;59.126;37.876;2023-07-09T12:18:03;99675.16;;;21.40;53.92
67842;BME280;54642;59.126;37.876;2023-07-09T12:20:35;99671.16;;;21.32;53.97
67842;BME280;54642;59.126;37.876;2023-07-09T12:23:25;99656.38;;;21.46;53.93
67842;BME280;54642;59.126;37.876;2023-07-09T12:25:53;99658.75;;;21.66;52.12
67842;BME280;54642;59.126;37.876;2023-07-09T12:28:20;99662.84;;;21.86;51.24
67842;BME280;54642;59.126;37.876;2023-07-09T12:30:49;99666.22;;;22.04;50.65
67842;BME280;54642;59.126;37.876;2023-07-09T12:33:23;99627.47;;;22.05;50.42
67842;BME280;54642;59.126;37.876;2023-07-09T12:35:57;99641.78;;;22.31;49.92
67842;BME280;54642;59.126;37.876;2023-07-09T12:38:26;99643.38;;;22.48;50.17
67842;BME280;54642;59.126;37.876;2023-07-09T12:40:54;99620.41;;;22.36;50.34
67842;BME280;54642;59.126;37.876;2023-07-09T12:43:28;99652.25;;;22.33;50.58
67842;BME280;54642;59.126;37.876;2023-07-09T12:45:57;99647.06;;;22.31;50.78
67842;BME280;54642;59.126;37.876;2023-07-09T12:48:28;99650.94;;;22.40;50.79
67842;BME280;54642;59.126;37.876;2023-07-09T12:50:56;99636.34;;;22.34;50.21
67842;BME280;54642;59.126;37.876;2023-07-09T12:53:24;99655.34;;;22.25;50.33
67842;BME280;54642;59.126;37.876;2023-07-09T12:55:55;99642.84;;;21.98;50.36
67842;BME280;54642;59.126;37.876;2023-07-09T12:58:23;99655.41;;;22.09;50.83
67842;BME280;54642;59.126;37.876;2023-07-09T13:00:55;99610.94;;;21.87;51.23
67842;BME280;54642;59.126;37.876;2023-07-09T13:03:27;99640.28;;;22.27;52.00
67842;BME280;54642;59.126;37.876;2023-07-09T13:05:58;99648.97;;;22.43;50.53
67842;BME280;54642;59.126;37.876;2023-07-09T13:08:25;99626.66;;;22.19;50.84
67842;BME280;54642;59.126;37.876;2023-07-09T13:10:52;99646.59;;;22.39;50.15
67842;BME280;54642;59.126;37.876;2023-07-09T13:13:21;99616.25;;;22.01;50.57
67842;BME280;54642;59.126;37.876;2023-07-09T13:15:51;99641.03;;;21.99;50.70
67842;BME280;54642;59.126;37.876;2023-07-09T13:18:17;99613.41;;;21.60;51.08
67842;BME280;54642;59.126;37.876;2023-07-09T13:20:45;99661.81;;;21.89;51.28
67842;BME280;54642;59.126;37.876;2023-07-09T13:23:19;99660.72;;;21.93;50.84
67842;BME280;54642;59.126;37.876;2023-07-09T13:25:46;99596.66;;;21.61;50.73
67842;BME280;54642;59.126;37.876;2023-07-09T13:28:29;99642.00;;;21.82;50.60
67842;BME280;54642;59.126;37.876;2023-07-09T13:31:00;99639.13;;;21.86;51.48
67842;BME280;54642;59.126;37.876;2023-07-09T13:33:27;99644.19;;;22.05;51.24
67842;BME280;54642;59.126;37.876;2023-07-09T13:35:53;99648.72;;;22.18;51.04
67842;BME280;54642;59.126;37.876;2023-07-09T13:38:22;99661.44;;;22.11;50.53